createdAt,value
2023-01-13T00:01:47.675Z,-2.04
2023-01-13T00:04:14.725Z,-1.62
2023-01-13T00:06:41.779Z,-1.60
2023-01-13T00:09:08.829Z,-1.81
2023-01-13T00:11:35.790Z,-2.03
2023-01-13T00:14:02.910Z,-2.26
2023-01-13T00:16:29.897Z,-2.31
2023-01-13T00:18:56.912Z,-1.90
2023-01-13T00:21:24.587Z,-1.59
2023-01-13T00:23:52.858Z,-1.63
2023-01-13T00:26:24.410Z,-1.96
2023-01-13T00:28:51.546Z,-2.22
2023-01-13T00:31:19.996Z,-2.35
2023-01-13T00:33:49.232Z,-2.05
2023-01-13T00:36:16.303Z,-1.52
2023-01-13T00:38:43.741Z,-1.43
2023-01-13T00:41:12.821Z,-1.57
2023-01-13T00:43:39.883Z,-1.81
2023-01-13T00:46:08.503Z,-2.05
2023-01-13T00:48:35.631Z,-2.05
2023-01-13T00:51:03.369Z,-1.43
2023-01-13T00:53:33.692Z,-1.16
2023-01-13T00:56:09.789Z,-1.28
2023-01-13T00:58:36.902Z,-1.61
2023-01-13T01:01:05.934Z,-1.85
2023-01-13T01:03:33.582Z,-2.11
2023-01-13T01:06:05.724Z,-2.27
2023-01-13T01:08:32.869Z,-1.77
2023-01-13T01:11:03.849Z,-1.14
2023-01-13T01:13:30.859Z,-1.05
2023-01-13T01:15:58.335Z,-1.37
2023-01-13T01:18:25.477Z,-1.62
2023-01-13T01:20:52.503Z,-1.82
2023-01-13T01:23:19.480Z,-2.04
2023-01-13T01:25:46.504Z,-2.14
2023-01-13T01:28:13.648Z,-1.60
2023-01-13T01:30:40.597Z,-1.21
2023-01-13T01:33:07.636Z,-1.36
2023-01-13T01:35:34.616Z,-1.61
2023-01-13T01:38:01.639Z,-1.86
2023-01-13T01:40:28.680Z,-2.06
2023-01-13T01:43:14.673Z,-2.12
2023-01-13T01:45:41.734Z,-1.49
2023-01-13T01:48:08.863Z,-1.26
2023-01-13T01:50:35.847Z,-1.37
2023-01-13T01:53:10.249Z,-1.59
2023-01-13T01:55:37.289Z,-1.88
2023-01-13T01:58:27.672Z,-2.10
2023-01-13T02:00:54.862Z,-1.96
2023-01-13T02:03:21.988Z,-1.47
2023-01-13T02:05:49.020Z,-1.37
2023-01-13T02:08:15.998Z,-1.55
2023-01-13T02:10:43.018Z,-1.78
2023-01-13T02:13:10.986Z,-2.04
2023-01-13T02:15:56.359Z,-2.11
2023-01-13T02:18:32.726Z,-1.54
2023-01-13T02:21:03.147Z,-1.41
2023-01-13T02:24:08.506Z,-1.54
2023-01-13T02:27:21.008Z,-1.83
2023-01-13T02:30:25.933Z,-2.12
2023-01-13T02:33:02.403Z,-2.23
2023-01-13T02:36:02.010Z,-1.57
2023-01-13T02:38:32.271Z,-1.17
2023-01-13T02:41:34.819Z,-1.27
2023-01-13T02:44:10.800Z,-1.62
2023-01-13T02:46:49.081Z,-1.92
2023-01-13T02:49:31.692Z,-2.18
2023-01-13T02:52:02.772Z,-1.77
2023-01-13T02:54:29.887Z,-1.17
2023-01-13T02:56:56.962Z,-1.16
2023-01-13T02:59:26.439Z,-1.37
2023-01-13T03:01:56.272Z,-1.61
2023-01-13T03:04:47.154Z,-1.86
2023-01-13T03:07:42.563Z,-2.11
2023-01-13T03:10:34.080Z,-2.01
2023-01-13T03:13:11.981Z,-1.23
2023-01-13T03:15:49.483Z,-1.02
2023-01-13T03:18:21.589Z,-1.18
2023-01-13T03:20:55.784Z,-1.47
2023-01-13T03:23:28.261Z,-1.73
2023-01-13T03:26:15.458Z,-2.01
2023-01-13T03:29:15.262Z,-1.94
2023-01-13T03:32:01.310Z,-1.30
2023-01-13T03:34:37.412Z,-1.25
2023-01-13T03:37:05.950Z,-1.40
2023-01-13T03:39:34.792Z,-1.65
2023-01-13T03:42:05.011Z,-1.88
2023-01-13T03:44:55.524Z,-2.07
2023-01-13T03:47:27.880Z,-2.07
2023-01-13T03:50:07.318Z,-1.37
2023-01-13T03:52:40.513Z,-1.01
2023-01-13T03:55:13.490Z,-1.06
2023-01-13T03:57:44.802Z,-1.30
2023-01-13T04:00:12.682Z,-1.58
2023-01-13T04:02:48.043Z,-1.81
2023-01-13T04:05:14.938Z,-1.97
2023-01-13T04:08:01.760Z,-1.49
2023-01-13T04:10:31.441Z,-1.14
2023-01-13T04:13:09.240Z,-1.21
2023-01-13T04:15:40.603Z,-1.45
2023-01-13T04:18:17.958Z,-1.75
2023-01-13T04:20:46.048Z,-2.03
2023-01-13T04:23:13.988Z,-1.88
2023-01-13T04:25:41.936Z,-1.31
2023-01-13T04:28:09.744Z,-1.25
2023-01-13T04:30:36.962Z,-1.40
2023-01-13T04:33:05.483Z,-1.60
2023-01-13T04:35:33.128Z,-1.82
2023-01-13T04:38:10.710Z,-2.03
2023-01-13T04:40:37.755Z,-2.04
2023-01-13T04:43:04.940Z,-1.37
2023-01-13T04:45:31.948Z,-1.03
2023-01-13T04:47:59.012Z,-1.17
2023-01-13T04:50:26.142Z,-1.43
2023-01-13T04:52:53.808Z,-1.70
2023-01-13T04:55:22.078Z,-1.97
2023-01-13T04:57:49.015Z,-1.89
2023-01-13T05:00:17.623Z,-1.43
2023-01-13T05:02:44.658Z,-1.34
2023-01-13T05:05:11.562Z,-1.56
2023-01-13T05:07:38.461Z,-1.81
2023-01-13T05:10:06.215Z,-2.04
2023-01-13T05:12:52.411Z,-2.13
2023-01-13T05:15:38.181Z,-1.62
2023-01-13T05:18:05.284Z,-1.56
2023-01-13T05:20:32.187Z,-1.69
2023-01-13T05:23:18.011Z,-1.87
2023-01-13T05:25:45.230Z,-2.11
2023-01-13T05:28:12.231Z,-2.27
2023-01-13T05:30:44.149Z,-1.84
2023-01-13T05:33:11.893Z,-1.48
2023-01-13T05:35:39.959Z,-1.50
2023-01-13T05:38:07.022Z,-1.73
2023-01-13T05:40:52.792Z,-2.00
2023-01-13T05:43:21.162Z,-2.20
2023-01-13T05:45:49.000Z,-1.88
2023-01-13T05:48:16.397Z,-1.38
2023-01-13T05:50:43.547Z,-1.38
2023-01-13T05:53:10.466Z,-1.54
2023-01-13T05:55:43.970Z,-1.75
2023-01-13T05:58:12.154Z,-1.99
2023-01-13T06:00:41.695Z,-2.05
2023-01-13T06:03:08.938Z,-1.42
2023-01-13T06:05:36.343Z,-1.00
2023-01-13T06:08:03.928Z,-1.09
2023-01-13T06:10:30.981Z,-1.28
2023-01-13T06:12:58.033Z,-1.58
2023-01-13T06:15:25.068Z,-1.84
2023-01-13T06:17:52.145Z,-1.89
2023-01-13T06:20:19.085Z,-1.39
2023-01-13T06:22:48.161Z,-1.20
2023-01-13T06:25:35.926Z,-1.39
2023-01-13T06:28:02.898Z,-1.73
2023-01-13T06:30:31.637Z,-1.99
2023-01-13T06:32:59.713Z,-1.87
2023-01-13T06:35:29.805Z,-1.30
2023-01-13T06:37:56.965Z,-1.29
2023-01-13T06:40:24.051Z,-1.41
2023-01-13T06:43:10.008Z,-1.65
2023-01-13T06:45:37.046Z,-1.84
2023-01-13T06:48:04.384Z,-1.82
2023-01-13T06:50:31.397Z,-1.33
2023-01-13T06:52:58.516Z,-1.11
2023-01-13T06:55:25.549Z,-1.20
2023-01-13T06:57:56.992Z,-1.46
2023-01-13T07:00:24.751Z,-1.71
2023-01-13T07:02:51.898Z,-1.93
2023-01-13T07:05:19.599Z,-1.98
2023-01-13T07:07:46.501Z,-1.47
2023-01-13T07:10:22.537Z,-1.32
2023-01-13T07:13:08.461Z,-1.45
2023-01-13T07:15:35.737Z,-1.68
2023-01-13T07:18:02.978Z,-1.97
2023-01-13T07:20:30.509Z,-1.82
2023-01-13T07:22:57.592Z,-1.57
2023-01-13T07:25:24.498Z,-1.54
2023-01-13T07:27:51.472Z,-1.62
2023-01-13T07:30:19.012Z,-1.79
2023-01-13T07:32:46.020Z,-1.96
2023-01-13T07:35:13.010Z,-1.70
2023-01-13T07:37:40.542Z,-1.14
2023-01-13T07:40:08.465Z,-0.97
2023-01-13T07:42:57.081Z,-1.05
2023-01-13T07:45:24.030Z,-1.32
2023-01-13T07:47:52.850Z,-1.60
2023-01-13T07:50:21.456Z,-1.62
2023-01-13T07:52:48.397Z,-1.13
2023-01-13T07:55:15.544Z,-0.91
2023-01-13T07:57:42.551Z,-0.95
2023-01-13T08:00:12.861Z,-1.13
2023-01-13T08:02:40.355Z,-1.43
2023-01-13T08:05:08.375Z,-1.67
2023-01-13T08:07:35.696Z,-1.53
2023-01-13T08:10:03.931Z,-0.99
2023-01-13T08:12:52.964Z,-0.87
2023-01-13T08:15:24.162Z,-1.04
2023-01-13T08:17:51.385Z,-1.34
2023-01-13T08:20:19.243Z,-1.51
2023-01-13T08:22:46.384Z,-1.18
2023-01-13T08:25:13.744Z,-0.75
2023-01-13T08:27:40.958Z,-0.63
2023-01-13T08:30:08.736Z,-0.78
2023-01-13T08:32:35.808Z,-0.95
2023-01-13T08:35:02.740Z,-1.10
2023-01-13T08:37:29.790Z,-1.12
2023-01-13T08:39:56.757Z,-0.50
2023-01-13T08:42:23.849Z,-0.16
2023-01-13T08:44:50.793Z,-0.21
2023-01-13T08:47:17.764Z,-0.43
2023-01-13T08:49:44.668Z,-0.71
2023-01-13T08:52:11.633Z,-0.94
2023-01-13T08:54:39.419Z,-0.89
2023-01-13T08:57:06.460Z,-0.37
2023-01-13T08:59:33.909Z,-0.24
2023-01-13T09:02:01.013Z,-0.57
2023-01-13T09:04:28.275Z,-0.80
2023-01-13T09:06:55.239Z,-0.84
2023-01-13T09:09:23.068Z,-1.08
2023-01-13T09:12:09.089Z,-0.56
2023-01-13T09:14:37.219Z,-0.47
2023-01-13T09:17:04.147Z,-0.62
2023-01-13T09:19:30.985Z,-0.78
2023-01-13T09:21:57.949Z,-0.97
2023-01-13T09:24:25.074Z,-0.90
2023-01-13T09:26:52.005Z,-0.44
2023-01-13T09:29:18.951Z,-0.12
2023-01-13T09:31:45.869Z,-0.21
2023-01-13T09:34:36.525Z,-0.43
2023-01-13T09:37:04.312Z,-0.99
2023-01-13T09:39:32.572Z,-1.27
2023-01-13T09:42:22.311Z,-1.05
2023-01-13T09:44:57.675Z,-0.66
2023-01-13T09:47:39.137Z,-0.92
2023-01-13T09:59:54.067Z,-1.27
2023-01-13T10:02:39.687Z,-0.68
2023-01-13T10:05:11.315Z,-0.27
2023-01-13T10:07:42.143Z,-0.35
2023-01-13T10:10:15.735Z,-0.59
2023-01-13T10:13:01.396Z,-0.99
2023-01-13T10:15:28.753Z,-1.13
2023-01-13T10:18:05.268Z,-0.58
2023-01-13T10:20:52.035Z,-0.46
2023-01-13T10:23:38.457Z,-0.57
2023-01-13T10:26:44.045Z,-0.84
2023-01-13T10:29:24.953Z,-0.70
2023-01-13T10:31:53.138Z,-0.43
2023-01-13T10:34:21.097Z,-0.57
2023-01-13T10:37:08.260Z,-0.95
2023-01-13T10:39:40.477Z,-1.14
2023-01-13T10:42:13.359Z,-1.06
2023-01-13T10:44:53.409Z,-0.96
2023-01-13T10:47:42.495Z,-0.75
2023-01-13T10:50:12.644Z,-0.76
2023-01-13T10:52:43.020Z,-0.95
2023-01-13T10:55:31.452Z,-0.98
2023-01-13T10:58:17.095Z,-0.55
2023-01-13T11:00:44.109Z,-0.30
2023-01-13T11:03:17.220Z,-0.38
2023-01-13T11:05:50.908Z,-0.58
2023-01-13T11:08:19.514Z,-0.76
2023-01-13T11:10:49.557Z,-0.56
2023-01-13T11:13:20.155Z,-0.09
2023-01-13T11:15:54.970Z,-0.26
2023-01-13T11:18:30.939Z,-0.42
2023-01-13T11:20:58.189Z,-0.72
2023-01-13T11:23:36.862Z,-0.94
2023-01-13T11:26:10.041Z,-0.64
2023-01-13T11:28:45.970Z,-0.54
2023-01-13T11:31:25.964Z,-0.75
2023-01-13T11:34:03.839Z,-0.94
2023-01-13T11:36:37.272Z,-0.77
2023-01-13T11:39:33.823Z,-0.51
2023-01-13T11:42:23.803Z,-0.50
2023-01-13T11:45:21.371Z,-0.89
2023-01-13T11:47:51.373Z,-0.62
2023-01-13T11:50:30.801Z,-0.18
2023-01-13T11:53:07.207Z,-0.31
2023-01-13T11:55:46.457Z,-0.46
2023-01-13T11:58:49.788Z,-0.59
2023-01-13T12:01:32.997Z,-0.41
2023-01-13T12:04:00.600Z,0.18
2023-01-13T12:06:32.083Z,0.32
2023-01-13T12:09:09.276Z,0.13
2023-01-13T12:12:16.819Z,-0.15
2023-01-13T12:15:22.183Z,-0.47
2023-01-13T12:17:52.394Z,0.08
2023-01-13T12:20:30.838Z,0.29
2023-01-13T12:23:01.870Z,0.07
2023-01-13T12:25:42.328Z,-0.16
2023-01-13T12:28:15.164Z,-0.48
2023-01-13T12:30:44.285Z,-0.17
2023-01-13T12:33:30.992Z,0.19
2023-01-13T12:36:01.231Z,0.17
2023-01-13T12:38:36.383Z,-0.01
2023-01-13T12:41:15.392Z,-0.31
2023-01-13T12:44:04.592Z,-0.33
2023-01-13T12:46:31.537Z,0.05
2023-01-13T12:49:01.619Z,0.35
2023-01-13T12:51:55.106Z,0.10
2023-01-13T12:54:40.575Z,-0.07
2023-01-13T12:57:20.838Z,-0.12
2023-01-13T13:00:03.400Z,0.37
2023-01-13T13:02:34.518Z,0.48
2023-01-13T13:05:13.698Z,0.22
2023-01-13T13:07:47.627Z,-0.01
2023-01-13T13:10:28.381Z,-0.12
2023-01-13T13:13:16.341Z,0.34
2023-01-13T13:15:47.427Z,0.49
2023-01-13T13:18:17.749Z,0.35
2023-01-13T13:21:08.175Z,0.11
2023-01-13T13:23:56.619Z,-0.10
2023-01-13T13:26:37.594Z,0.02
2023-01-13T13:29:27.892Z,0.55
2023-01-13T13:32:07.661Z,0.57
2023-01-13T13:35:12.572Z,0.44
2023-01-13T13:38:04.403Z,0.16
2023-01-13T13:40:54.141Z,0.08
2023-01-13T13:43:39.962Z,0.57
2023-01-13T13:46:41.823Z,0.66
2023-01-13T13:49:08.808Z,0.38
2023-01-13T13:51:41.137Z,0.10
2023-01-13T13:54:11.275Z,-0.03
2023-01-13T13:56:42.389Z,0.25
2023-01-13T13:59:15.170Z,0.25
2023-01-13T14:01:43.730Z,0.09
2023-01-13T14:04:12.492Z,-0.02
2023-01-13T14:06:50.405Z,-0.14
2023-01-13T14:09:18.784Z,0.04
2023-01-13T14:12:00.688Z,0.19
2023-01-13T14:14:27.939Z,0.04
2023-01-13T14:16:58.161Z,-0.11
2023-01-13T14:19:33.704Z,-0.12
2023-01-13T14:22:02.200Z,0.26
2023-01-13T14:24:30.262Z,0.23
2023-01-13T14:27:14.022Z,-0.08
2023-01-13T14:29:40.705Z,-0.24
2023-01-13T14:32:07.748Z,-0.24
2023-01-13T14:34:35.000Z,0.27
2023-01-13T14:37:25.979Z,0.44
2023-01-13T14:39:54.124Z,0.25
2023-01-13T14:42:21.660Z,0.01
2023-01-13T14:44:50.232Z,-0.26
2023-01-13T14:47:26.418Z,-0.15
2023-01-13T14:50:07.073Z,0.18
2023-01-13T14:52:36.050Z,0.10
2023-01-13T14:55:09.622Z,-0.05
2023-01-13T14:57:40.908Z,-0.33
2023-01-13T15:00:14.938Z,-0.07
2023-01-13T15:02:58.110Z,0.10
2023-01-13T15:05:25.379Z,0.00
2023-01-13T15:07:53.350Z,-0.21
2023-01-13T15:10:23.776Z,-0.35
2023-01-13T15:12:53.815Z,-0.12
2023-01-13T15:15:36.852Z,-0.12
2023-01-13T15:18:12.325Z,-0.49
2023-01-13T15:20:39.645Z,-0.63
2023-01-13T15:23:07.019Z,-0.43
2023-01-13T15:25:35.397Z,-0.19
2023-01-13T15:28:03.325Z,-0.10
2023-01-13T15:30:30.662Z,-0.36
2023-01-13T15:32:59.343Z,-0.51
2023-01-13T15:35:27.519Z,-0.22
2023-01-13T15:37:55.181Z,-0.08
2023-01-13T15:40:27.938Z,-0.20
2023-01-13T15:43:13.633Z,-0.51
2023-01-13T15:45:59.136Z,-0.34
2023-01-13T15:48:27.707Z,0.09
2023-01-13T15:50:55.088Z,0.13
2023-01-13T15:53:22.519Z,-0.07
2023-01-13T15:55:54.786Z,-0.24
2023-01-13T15:58:28.143Z,-0.30
2023-01-13T16:00:56.846Z,0.24
2023-01-13T16:03:23.976Z,0.34
2023-01-13T16:05:51.167Z,-0.00
2023-01-13T16:08:21.518Z,-0.27
2023-01-13T16:10:48.956Z,-0.34
2023-01-13T16:13:16.801Z,-0.02
2023-01-13T16:16:05.539Z,0.08
2023-01-13T16:18:32.720Z,-0.13
2023-01-13T16:20:59.708Z,-0.35
2023-01-13T16:23:26.730Z,-0.36
2023-01-13T16:25:53.826Z,0.01
2023-01-13T16:28:23.479Z,0.09
2023-01-13T16:30:50.545Z,-0.08
2023-01-13T16:33:17.965Z,-0.37
2023-01-13T16:36:10.724Z,-0.45
2023-01-13T16:38:32.292Z,-0.20
2023-01-13T16:40:59.852Z,-0.10
2023-01-13T16:43:27.507Z,-0.23
2023-01-13T16:45:54.681Z,-0.49
2023-01-13T16:48:24.488Z,-0.29
2023-01-13T16:50:51.549Z,-0.07
2023-01-13T16:53:18.587Z,-0.09
2023-01-13T16:55:45.631Z,-0.37
2023-01-13T16:58:19.579Z,-0.43
2023-01-13T17:00:47.255Z,-0.04
2023-01-13T17:03:15.358Z,0.13
2023-01-13T17:05:46.224Z,0.09
2023-01-13T17:08:20.132Z,-0.07
2023-01-13T17:10:47.237Z,-0.34
2023-01-13T17:13:16.772Z,-0.13
2023-01-13T17:15:45.207Z,-0.01
2023-01-13T17:18:12.852Z,-0.03
2023-01-13T17:20:40.395Z,-0.28
2023-01-13T17:23:07.734Z,-0.46
2023-01-13T17:25:36.390Z,-0.29
2023-01-13T17:28:03.779Z,0.06
2023-01-13T17:30:31.803Z,-0.03
2023-01-13T17:32:58.918Z,-0.28
2023-01-13T17:35:26.252Z,-0.53
2023-01-13T17:37:54.071Z,-0.29
2023-01-13T17:40:21.302Z,0.03
2023-01-13T17:42:48.553Z,-0.05
2023-01-13T17:45:18.222Z,-0.27
2023-01-13T17:47:47.351Z,-0.57
2023-01-13T17:50:19.031Z,-0.43
2023-01-13T17:52:46.225Z,-0.26
2023-01-13T17:55:13.265Z,-0.27
2023-01-13T17:57:40.153Z,-0.35
2023-01-13T18:00:08.488Z,-0.56
2023-01-13T18:02:42.108Z,-0.20
2023-01-13T18:05:09.354Z,-0.11
2023-01-13T18:07:36.365Z,-0.37
2023-01-13T18:10:04.912Z,-0.56
2023-01-13T18:12:34.256Z,-0.67
2023-01-13T18:15:01.682Z,-0.33
2023-01-13T18:17:29.083Z,-0.16
2023-01-13T18:20:15.278Z,-0.39
2023-01-13T18:23:01.282Z,-0.63
2023-01-13T18:25:46.760Z,-0.46
2023-01-13T18:28:13.821Z,-0.11
2023-01-13T18:30:40.971Z,-0.12
2023-01-13T18:33:09.630Z,-0.30
2023-01-13T18:35:38.739Z,-0.59
2023-01-13T18:38:06.819Z,-0.28
2023-01-13T18:40:34.249Z,-0.05
2023-01-13T18:43:01.598Z,-0.27
2023-01-13T18:45:30.625Z,-0.48
2023-01-13T18:47:59.587Z,-0.63
2023-01-13T18:50:27.863Z,-0.38
2023-01-13T18:52:55.020Z,-0.25
2023-01-13T18:55:22.776Z,-0.40
2023-01-13T18:57:51.699Z,-0.74
2023-01-13T19:00:19.447Z,-0.53
2023-01-13T19:11:46.877Z,-0.57
2023-01-13T19:14:34.231Z,-0.26
2023-01-13T19:17:09.056Z,-0.22
2023-01-13T19:19:40.016Z,-0.49
2023-01-13T19:22:07.523Z,-0.76
2023-01-13T19:24:34.746Z,-0.51
2023-01-13T19:27:02.102Z,-0.13
2023-01-13T19:29:33.130Z,-0.17
2023-01-13T19:32:00.910Z,-0.33
2023-01-13T19:34:28.177Z,-0.58
2023-01-13T19:36:56.775Z,-0.52
2023-01-13T19:39:23.865Z,-0.06
2023-01-13T19:42:09.881Z,0.03
2023-01-13T19:44:55.668Z,-0.14
2023-01-13T19:47:23.124Z,-0.45
2023-01-13T19:49:50.272Z,-0.50
2023-01-13T19:52:17.525Z,-0.27
2023-01-13T19:54:45.434Z,-0.16
2023-01-13T19:57:12.744Z,-0.46
2023-01-13T19:59:42.970Z,-0.71
2023-01-13T20:02:28.134Z,-0.53
2023-01-13T20:04:56.341Z,-0.19
2023-01-13T20:07:27.563Z,-0.27
2023-01-13T20:09:56.452Z,-0.50
2023-01-13T20:12:24.622Z,-0.70
2023-01-13T20:14:51.901Z,-0.46
2023-01-13T20:17:20.046Z,-0.09
2023-01-13T20:19:47.203Z,-0.29
2023-01-13T20:22:14.448Z,-0.38
2023-01-13T20:24:41.510Z,-0.62
2023-01-13T20:27:08.547Z,-0.56
2023-01-13T20:29:35.633Z,-0.35
2023-01-13T20:32:02.973Z,-0.36
2023-01-13T20:34:29.884Z,-0.62
2023-01-13T20:36:56.839Z,-0.66
2023-01-13T20:39:26.494Z,-0.26
2023-01-13T20:42:12.639Z,-0.04
2023-01-13T20:44:39.836Z,-0.07
2023-01-13T20:47:07.241Z,-0.29
2023-01-13T20:49:36.231Z,-0.58
2023-01-13T20:52:09.422Z,-0.47
2023-01-13T20:54:37.333Z,-0.24
2023-01-13T20:57:05.465Z,-0.25
2023-01-13T20:59:32.496Z,-0.42
2023-01-13T21:01:59.661Z,-0.54
2023-01-13T21:04:26.722Z,-0.09
2023-01-13T21:06:54.829Z,0.17
2023-01-13T21:09:23.627Z,0.02
2023-01-13T21:12:09.566Z,-0.38
2023-01-13T21:14:56.271Z,-0.59
2023-01-13T21:17:41.986Z,-0.39
2023-01-13T21:20:10.793Z,-0.21
2023-01-13T21:22:39.014Z,-0.48
2023-01-13T21:25:06.804Z,-0.75
2023-01-13T21:27:34.766Z,-0.91
2023-01-13T21:30:01.739Z,-0.50
2023-01-13T21:32:28.749Z,-0.36
2023-01-13T21:34:55.683Z,-0.64
2023-01-13T21:37:22.844Z,-0.84
2023-01-13T21:39:49.784Z,-0.90
2023-01-13T21:42:36.187Z,-0.52
2023-01-13T21:45:22.514Z,-0.48
2023-01-13T21:47:49.541Z,-0.77
2023-01-13T21:50:18.476Z,-0.90
2023-01-13T21:52:45.671Z,-0.82
2023-01-13T21:55:25.325Z,-0.29
2023-01-13T21:57:53.569Z,-0.09
2023-01-13T22:00:22.285Z,-0.35
2023-01-13T22:02:49.480Z,-0.65
2023-01-13T22:05:18.146Z,-1.01
2023-01-13T22:07:45.071Z,-0.73
2023-01-13T22:10:17.018Z,-0.31
2023-01-13T22:12:44.175Z,-0.29
2023-01-13T22:15:13.091Z,-0.60
2023-01-13T22:17:41.312Z,-0.91
2023-01-13T22:20:10.270Z,-0.80
2023-01-13T22:22:37.271Z,-0.45
2023-01-13T22:25:07.146Z,-0.49
2023-01-13T22:27:39.571Z,-0.72
2023-01-13T22:30:13.937Z,-1.05
2023-01-13T22:32:40.921Z,-0.90
2023-01-13T22:35:09.083Z,-0.48
2023-01-13T22:37:36.148Z,-0.59
2023-01-13T22:40:04.559Z,-0.68
2023-01-13T22:42:31.395Z,-0.90
2023-01-13T22:44:58.205Z,-0.92
2023-01-13T22:47:25.364Z,-0.44
2023-01-13T22:49:52.488Z,-0.32
2023-01-13T22:52:19.551Z,-0.53
2023-01-13T22:54:46.598Z,-0.69
2023-01-13T22:57:13.640Z,-0.86
2023-01-13T22:59:41.104Z,-0.53
2023-01-13T23:02:07.960Z,-0.31
2023-01-13T23:04:35.158Z,-0.43
2023-01-13T23:07:02.156Z,-0.70
2023-01-13T23:09:30.171Z,-0.93
2023-01-13T23:11:58.595Z,-0.73
2023-01-13T23:14:25.638Z,-0.42
2023-01-13T23:16:52.904Z,-0.49
2023-01-13T23:19:20.147Z,-0.71
2023-01-13T23:21:47.133Z,-0.93
2023-01-13T23:24:14.071Z,-0.92
2023-01-13T23:26:40.942Z,-0.54
2023-01-13T23:29:09.790Z,-0.55
2023-01-13T23:31:36.806Z,-0.70
2023-01-13T23:34:03.754Z,-0.95
2023-01-13T23:36:31.001Z,-1.01
2023-01-13T23:38:58.680Z,-0.69
2023-01-13T23:41:26.166Z,-0.53
2023-01-13T23:43:57.792Z,-0.59
2023-01-13T23:46:24.939Z,-0.91
2023-01-13T23:48:52.012Z,-1.16
2023-01-13T23:51:21.116Z,-1.03
2023-01-13T23:53:49.010Z,-0.94
2023-01-13T23:56:20.827Z,-1.03
2023-01-13T23:58:47.929Z,-1.30
